Impacts METAR Board
IDs:

KPHL - Philadelphia Intl, PA, US

Updated at: 0600 UTC 07 Dec 2022
Potential Impact None Slight Moderate High
Time 06/18Z 06/19Z 06/20Z 06/21Z 06/22Z 06/23Z 07/00Z 07/01Z 07/02Z 07/03Z 07/04Z 07/05Z 07/06Z
Temp57 56 56 54 53 56 57 56 54 55 55 54 53
Dewpt54 54 55 53 52 55 56 55 54 54 54 54 53
Altim30.23 30.21 30.22 30.24 30.22 30.22 30.22 30.23 30.22 30.22 30.22 30.21 30.20
VIS3 4 2 1 2 3 4 3 5 3 2 1 1
CIG14 12 4 4 4 4 6 5 4 5 5 3 3
CoverOVCOVCOVCOVCOVCOVCOVCOVCOVCOVCOVCOVCOVC
FltCatMVFRMVFRLIFRLIFRLIFRLIFRIFRIFRLIFRIFRIFRLIFRLIFR
WX-RA BR-RA BR-RA BRRA BR-RA BR-RA BR-RA BR-RA BR-RA BR-RA BR-RA BR-RA BRBR
WDir1601501702900150190240230200220250250
WSpd10 10 7 6 0 5 5 6 6 5 5 4 4
WGst20 -- -- -- -- -- -- -- -- -- -- -- --
Raw hourly METARs
KPHL 061754Z 16010G20KT 3SM -RA BR BKN014 BKN030 OVC035 14/12 A3023 RMK AO2 SLP235 P0001 60006 T01390122 10139 20061 56021
KPHL 061854Z 15010KT 4SM -RA BR BKN012 BKN027 OVC032 13/12 A3021 RMK AO2 SLP230 P0006 T01330122
KPHL 061954Z 17007KT 2SM -RA BR BKN004 OVC013 13/13 A3022 RMK AO2 SLP232 P0004 T01330128
KPHL 062054Z 29006KT 1SM R09R/6000VP6000FT RA BR BKN004 OVC012 12/12 A3024 RMK AO2 SLP238 P0010 60020 T01220117 53003
KPHL 062154Z 00000KT 2SM -RA BR BKN004 OVC008 12/11 A3022 RMK AO2 SLP234 P0012 T01170111
KPHL 062254Z 15005KT 3SM -RA BR BKN004 OVC008 13/13 A3022 RMK AO2 SLP233 P0003 T01330128
KPHL 062359Z 19005KT 4SM -RA BR OVC006 14/13 A3022 RMK AO2 P0000 T01390133
KPHL 070054Z 24006KT 3SM R09R/5500VP6000FT -RA BR OVC005 13/13 A3023 RMK AO2 SLP235 P0002 T01330128
KPHL 070156Z 23006KT 5SM -RA BR OVC004 12/12 A3022 RMK AO2 P0000 T01220122
KPHL 070254Z 20005KT 3SM -RA BR OVC005 13/12 A3022 RMK AO2 SLP233 P0006 60013 T01280122 58001
KPHL 070354Z 22005KT 2SM -RA BR OVC005 13/12 A3022 RMK AO2 SLP232 P0003 T01280122
KPHL 070503Z 25004KT 1SM R09R/P6000FT -RA BR OVC003 12/12 A3021 RMK AO2 P0000 T01220122
KPHL 070554Z 25004KT 1SM R09R/2800V3500FT BR OVC003 12/12 A3020 RMK AO2 RAE26 SLP226 P0001 60020 T01170117 10139 20117 58006



Page loaded:  06:25 UTC  |   10:25 PM Pacific  |   11:25 PM Mountain  |   12:25 AM Central  |   01:25 AM Eastern

 

ADVISORIES

FORECASTS

FORECASTS

OBSERVATIONS

USER TOOLS

ABOUT US